Terminal Aerodrome Forecast
Issued by NWS Milwaukee/Sullivan, WI

Home | Current Version | Previous Version | Text Only | Print | Product List | Glossary On
Versions: 1 2 3 4 5 6 7 8 9 10 11 12 13 14 15 16 17 18 19 20 21 22 23 24 25 26 27 28 29 30 31 32 33 34 35 36 37 38 39 40 41 42 43 44
000
FTUS43 KMKX 300302 AAA
TAFMSN
TAF AMD
KMSN 300302Z 3003/3024 08010KT P6SM -RA SCT015 SCT025 OVC045
     FM300600 08013KT 6SM -RA BR SCT015 OVC030
     FM300800 08014KT 5SM RA BR SCT008 OVC020
     FM301000 08015KT 4SM RA SCT005 OVC015
     FM301300 07015G24KT 2SM RA OVC008
     FM301700 07015G26KT 2SM RA OVC003
     FM302200 05014G26KT 2SM RA OVC008=

USA.gov is the U.S. government's official web portal to all federal, state and local government web resources and services.